Time;durP1;ratioP1;P1;durP2;ratioP2;P2;SDS_P1;SDS_P2;PMS_P1;PMS_P2;Temp;Humidity;BMP_temperature;BMP_pressure;BME280_temperature;BME280_humidity;BME280_pressure;Samples;Min_cycle;Max_cycle;Signal;HPM_P1;HPM_P2
2021/12/06 04:32:56;;;;;;;0.75;0.75;;;;;;;0.10;39.52;91547.13;6169006;22;20020;-74
2021/12/06 04:35:23;;;;;;;1.10;0.80;;;;;;;0.11;38.69;91535.03;6272626;22;20194;-74
2021/12/06 04:37:50;;;;;;;0.77;0.77;;;;;;;0.10;39.22;91534.25;6168695;22;20431;-74
2021/12/06 04:40:16;;;;;;;3.42;0.80;;;;;;;0.17;39.19;91536.63;6275556;22;20016;-73
2021/12/06 04:42:44;;;;;;;1.52;0.80;;;;;;;0.13;39.63;91536.31;6200108;22;20023;-74
2021/12/06 04:45:12;;;;;;;0.93;0.75;;;;;;;0.12;38.95;91549.47;6305496;22;20015;-74
2021/12/06 04:47:38;;;;;;;0.68;0.68;;;;;;;0.04;39.08;91555.03;6306073;22;20015;-74
2021/12/06 04:50:06;;;;;;;0.60;0.60;;;;;;;-0.01;39.90;91566.06;6174205;22;20060;-74
2021/12/06 04:52:33;;;;;;;2.17;1.15;;;;;;;0.00;38.83;91565.06;6198606;22;20090;-74
2021/12/06 04:55:02;;;;;;;0.70;0.70;;;;;;;0.04;39.60;91566.09;6150486;22;20011;-74
2021/12/06 04:57:36;;;;;;;3.03;0.70;;;;;;;-0.05;39.90;91570.91;6199131;22;20019;-74
2021/12/06 05:00:14;;;;;;;0.73;0.70;;;;;;;-0.02;40.42;91573.03;6199306;22;20688;-74
2021/12/06 05:02:41;;;;;;;1.00;0.80;;;;;;;-0.06;39.85;91578.91;6199240;22;20015;-74
2021/12/06 05:05:34;;;;;;;0.88;0.77;;;;;;;-0.12;40.79;91578.06;6198522;22;19995;-74
2021/12/06 05:08:06;;;;;;;0.70;0.70;;;;;;;-0.17;40.52;91582.38;6204501;22;20011;-74
2021/12/06 05:10:32;;;;;;;0.60;0.60;;;;;;;-0.26;40.79;91593.09;6198790;22;20023;-74
2021/12/06 05:12:58;;;;;;;0.70;0.70;;;;;;;-0.29;40.55;91592.81;6199210;22;20030;-74
2021/12/06 05:15:26;;;;;;;2.20;0.77;;;;;;;-0.31;40.63;91593.06;6253025;22;20077;-74
2021/12/06 05:17:52;;;;;;;0.70;0.70;;;;;;;-0.30;40.79;91601.53;6305327;22;19995;-74
2021/12/06 05:20:19;;;;;;;0.60;0.60;;;;;;;-0.35;40.92;91604.84;6198090;22;20018;-74
2021/12/06 05:22:48;;;;;;;0.60;0.60;;;;;;;-0.17;40.42;91605.53;6277863;22;20015;-74
2021/12/06 05:25:14;;;;;;;0.70;0.70;;;;;;;-0.14;40.06;91605.81;6305160;22;20007;-74
2021/12/06 05:27:42;;;;;;;0.82;0.75;;;;;;;-0.22;40.05;91604.47;6198303;22;20007;-74
2021/12/06 05:30:15;;;;;;;1.05;0.80;;;;;;;-0.27;41.18;91609.56;6173405;22;20003;-74
2021/12/06 05:32:42;;;;;;;0.70;0.70;;;;;;;-0.30;40.83;91610.03;6177144;22;20089;-74
2021/12/06 05:35:10;;;;;;;0.85;0.60;;;;;;;-0.29;40.55;91613.41;6304864;22;20442;-74
2021/12/06 05:37:42;;;;;;;0.65;0.65;;;;;;;-0.32;40.50;91619.78;6305737;22;20045;-75
2021/12/06 05:40:12;;;;;;;0.85;0.80;;;;;;;-0.36;40.78;91618.72;6305465;22;20359;-75
2021/12/06 05:42:38;;;;;;;1.23;0.93;;;;;;;-0.41;40.77;91631.50;6199139;22;20490;-74
2021/12/06 05:45:06;;;;;;;1.48;1.00;;;;;;;-0.45;41.29;91627.84;6305684;22;20060;-75
2021/12/06 05:47:31;;;;;;;0.95;0.73;;;;;;;-0.43;41.16;91638.69;6306933;22;20512;-74
2021/12/06 05:49:57;;;;;;;0.73;0.70;;;;;;;-0.47;41.05;91640.19;6307963;22;19995;-74
2021/12/06 05:52:23;;;;;;;1.13;0.80;;;;;;;-0.50;41.02;91640.66;6307457;22;20069;-75
2021/12/06 05:54:49;;;;;;;1.05;0.90;;;;;;;-0.51;40.78;91639.13;6280725;22;20048;-74
2021/12/06 05:57:16;;;;;;;0.63;0.63;;;;;;;-0.38;40.23;91638.75;6280099;22;20015;-76
2021/12/06 05:59:43;;;;;;;0.95;0.70;;;;;;;-0.30;40.16;91646.03;6307986;22;19999;-76
2021/12/06 06:02:10;;;;;;;1.10;0.80;;;;;;;-0.25;40.11;91655.59;6306568;22;20011;-75
2021/12/06 06:04:36;;;;;;;0.70;0.70;;;;;;;-0.21;39.40;91656.69;6176962;22;20000;-76
2021/12/06 06:07:02;;;;;;;0.70;0.70;;;;;;;-0.22;40.08;91666.19;6307220;22;20022;-76
2021/12/06 06:09:28;;;;;;;0.60;0.60;;;;;;;-0.22;39.83;91661.06;6307305;22;20476;-79
2021/12/06 06:11:54;;;;;;;1.17;0.90;;;;;;;-0.16;40.12;91666.25;6306721;22;20011;-75
2021/12/06 06:14:19;;;;;;;1.88;1.00;;;;;;;-0.13;40.30;91668.38;6306796;22;20006;-76
2021/12/06 06:16:47;;;;;;;1.10;0.70;;;;;;;-0.18;39.94;91671.66;6175048;22;20145;-76
2021/12/06 06:19:16;;;;;;;0.70;0.70;;;;;;;-0.17;39.92;91669.84;6307270;22;20003;-76
2021/12/06 06:21:42;;;;;;;1.02;0.88;;;;;;;-0.16;39.84;91684.25;6307316;22;20438;-77
2021/12/06 06:24:07;;;;;;;0.80;0.80;;;;;;;-0.14;39.78;91679.66;6306722;22;20006;-78
2021/12/06 06:26:33;;;;;;;0.70;0.70;;;;;;;-0.09;39.08;91679.69;6306852;22;20011;-77
2021/12/06 06:28:59;;;;;;;1.77;1.10;;;;;;;-0.02;39.30;91685.47;6254626;22;20031;-76
2021/12/06 06:31:24;;;;;;;0.90;0.80;;;;;;;-0.01;38.99;91687.78;6258400;22;20050;-75
2021/12/06 06:34:09;;;;;;;0.68;0.68;;;;;;;0.04;38.91;91688.84;6179717;22;20387;-75
2021/12/06 06:36:35;;;;;;;0.88;0.82;;;;;;;0.29;38.42;91685.75;6178749;23;20391;-77
2021/12/06 06:39:03;;;;;;;2.28;0.70;;;;;;;0.26;38.00;91684.47;6179186;23;20009;-75
2021/12/06 06:41:31;;;;;;;1.30;0.93;;;;;;;0.23;38.18;91686.75;6178791;23;20020;-75
2021/12/06 06:43:58;;;;;;;0.98;0.80;;;;;;;0.17;38.04;91689.25;6152820;23;20043;-76
2021/12/06 06:46:23;;;;;;;0.80;0.80;;;;;;;0.20;38.51;91696.50;6152522;23;20009;-76
2021/12/06 06:48:49;;;;;;;1.02;0.80;;;;;;;0.18;38.01;91695.19;6127816;23;20032;-75
2021/12/06 06:51:15;;;;;;;1.30;0.90;;;;;;;0.24;38.29;91708.88;6152669;22;20017;-75
2021/12/06 06:53:40;;;;;;;0.60;0.60;;;;;;;0.24;38.06;91704.50;6177607;23;20335;-75
2021/12/06 06:56:06;;;;;;;2.00;1.05;;;;;;;0.24;38.26;91714.81;6128265;23;20532;-76
2021/12/06 06:58:31;;;;;;;0.70;0.70;;;;;;;0.28;37.78;91715.88;6154372;23;20088;-76
2021/12/06 07:00:57;;;;;;;0.73;0.73;;;;;;;0.32;38.81;91716.97;6154490;22;20078;-75
2021/12/06 07:03:24;;;;;;;0.63;0.63;;;;;;;0.41;38.40;91717.31;6180746;23;20024;-75
2021/12/06 07:06:08;;;;;;;2.03;0.90;;;;;;;0.41;38.46;91723.22;6178769;23;20032;-76
2021/12/06 07:08:34;;;;;;;0.85;0.70;;;;;;;0.42;38.48;91718.84;6178616;22;20456;-77
2021/12/06 07:11:00;;;;;;;0.70;0.70;;;;;;;0.44;38.65;91719.41;6177962;23;19997;-76
2021/12/06 07:13:27;;;;;;;0.80;0.80;;;;;;;0.48;38.19;91735.91;6154547;23;20436;-75
2021/12/06 07:15:54;;;;;;;0.80;0.80;;;;;;;1.65;37.23;91730.88;6179986;23;20011;-76
2021/12/06 07:18:21;;;;;;;1.13;0.90;;;;;;;4.39;32.11;91721.22;6178619;23;20021;-76
2021/12/06 07:20:46;;;;;;;0.80;0.80;;;;;;;6.64;29.42;91721.09;6178431;22;20092;-76
2021/12/06 07:23:12;;;;;;;0.93;0.80;;;;;;;8.38;25.95;91723.53;6179468;23;20435;-76
2021/12/06 07:25:39;;;;;;;0.60;0.60;;;;;;;9.73;24.54;91718.53;6178336;23;20005;-76
2021/12/06 07:28:06;;;;;;;1.02;0.80;;;;;;;10.93;23.03;91713.25;6179436;23;20013;-77
2021/12/06 07:30:32;;;;;;;1.13;0.70;;;;;;;12.03;21.51;91713.06;6178793;23;20005;-76
2021/12/06 07:32:59;;;;;;;0.80;0.80;;;;;;;12.83;20.11;91722.91;6128156;23;20042;-77
2021/12/06 07:35:27;;;;;;;2.55;0.90;;;;;;;13.72;19.42;91715.63;6177279;23;20054;-76
2021/12/06 07:37:53;;;;;;;0.93;0.88;;;;;;;14.31;19.19;91719.06;6152829;23;20017;-77
2021/12/06 07:40:19;;;;;;;3.53;1.13;;;;;;;15.07;18.16;91722.16;6178145;23;20340;-77
2021/12/06 07:42:45;;;;;;;1.08;0.90;;;;;;;15.80;17.35;91721.22;6178394;23;20390;-77
2021/12/06 07:45:12;;;;;;;1.25;0.80;;;;;;;16.32;16.92;91720.28;6177426;23;20011;-77
2021/12/06 07:47:38;;;;;;;1.27;0.90;;;;;;;16.64;16.38;91728.25;6176193;23;20024;-77
2021/12/06 07:50:10;;;;;;;1.25;0.80;;;;;;;16.94;15.66;91725.19;6152089;22;19997;-78
2021/12/06 07:52:36;;;;;;;1.33;0.90;;;;;;;17.91;15.05;91730.59;6177842;23;20009;-77
2021/12/06 07:55:04;;;;;;;0.60;0.60;;;;;;;17.82;14.91;91727.41;6175881;22;20083;-78
2021/12/06 07:57:30;;;;;;;2.28;0.80;;;;;;;18.61;14.42;91724.28;6178286;23;20088;-78
2021/12/06 07:59:56;;;;;;;0.52;0.52;;;;;;;18.43;13.71;91726.63;6177673;23;20482;-78
2021/12/06 08:02:22;;;;;;;0.95;0.70;;;;;;;18.60;14.01;91724.63;6177396;23;20324;-78
2021/12/06 08:04:54;;;;;;;0.88;0.70;;;;;;;19.06;13.54;91722.72;6178328;23;20633;-78
2021/12/06 08:07:20;;;;;;;;;;;;;;;20.27;13.07;91725.38;6178163;23;20027;-78
2021/12/06 08:09:49;;;;;;;1.30;0.80;;;;;;;20.83;12.57;91723.66;6177496;22;20382;-77
2021/12/06 08:12:15;;;;;;;0.73;0.60;;;;;;;21.08;11.68;91725.72;6176922;22;20013;-78
2021/12/06 08:14:40;;;;;;;1.02;0.70;;;;;;;21.53;11.94;91723.75;6127953;23;20015;-78
2021/12/06 08:17:06;;;;;;;1.77;0.82;;;;;;;21.63;11.35;91720.38;6179935;22;20044;-78
2021/12/06 08:19:34;;;;;;;2.80;0.80;;;;;;;22.42;11.18;91731.34;6179646;23;20451;-78
2021/12/06 08:21:59;;;;;;;0.90;0.73;;;;;;;21.62;11.35;91740.16;6180216;23;20296;-78
2021/12/06 08:24:25;;;;;;;0.80;0.80;;;;;;;21.44;11.43;91731.31;6155067;23;20017;-78
2021/12/06 08:26:51;;;;;;;1.00;0.70;;;;;;;21.67;10.78;91734.47;6156531;22;20004;-78
2021/12/06 08:29:17;;;;;;;0.60;0.60;;;;;;;22.04;11.34;91742.25;6180505;23;20013;-79
2021/12/06 08:31:44;;;;;;;0.88;0.75;;;;;;;22.45;10.82;91738.59;6181115;23;20040;-78
2021/12/06 08:34:10;;;;;;;0.80;0.70;;;;;;;22.79;10.84;91735.59;6177129;22;20040;-78
2021/12/06 08:36:36;;;;;;;0.68;0.68;;;;;;;21.79;10.62;91752.03;6179829;23;20589;-78
2021/12/06 08:39:05;;;;;;;1.20;0.82;;;;;;;22.49;10.18;91747.34;6179728;23;20012;-78
2021/12/06 08:41:31;;;;;;;0.75;0.63;;;;;;;22.99;10.73;91752.78;6177779;23;20009;-78
2021/12/06 08:43:58;;;;;;;0.63;0.63;;;;;;;20.94;11.67;91763.59;6177549;23;20084;-79
2021/12/06 08:46:30;;;;;;;0.50;0.50;;;;;;;20.64;11.42;91766.38;6177115;23;20066;-78
2021/12/06 08:48:57;;;;;;;1.33;0.70;;;;;;;19.64;12.11;91771.28;6177470;23;20013;-78
2021/12/06 08:51:28;;;;;;;0.40;0.40;;;;;;;19.27;13.13;91772.69;6177636;23;20005;-78
2021/12/06 08:53:55;;;;;;;0.82;0.50;;;;;;;17.27;14.43;91773.13;6154000;23;20020;-79
2021/12/06 08:56:21;;;;;;;1.08;0.60;;;;;;;15.74;15.74;91775.34;6177797;23;20381;-78
2021/12/06 08:58:47;;;;;;;0.90;0.55;;;;;;;14.11;17.43;91775.94;6178701;23;20001;-77
2021/12/06 09:01:13;;;;;;;0.95;0.60;;;;;;;12.89;18.35;91787.31;6177242;23;20021;-78
2021/12/06 09:03:39;;;;;;;1.10;0.65;;;;;;;11.32;20.02;91799.91;6152439;23;20050;-77
2021/12/06 09:06:09;;;;;;;1.65;0.63;;;;;;;9.27;22.02;91818.06;6180172;23;20017;-77
2021/12/06 09:08:36;;;;;;;1.20;0.80;;;;;;;9.51;22.46;91809.97;6179358;23;20013;-76
2021/12/06 09:11:04;;;;;;;2.70;0.82;;;;;;;8.99;24.70;91809.53;6179509;23;19997;-77
2021/12/06 09:13:48;;;;;;;0.73;0.63;;;;;;;9.21;21.85;91814.81;6179872;23;20013;-77
2021/12/06 09:16:14;;;;;;;0.60;0.60;;;;;;;9.05;22.56;91811.72;6179622;23;20076;-77
2021/12/06 09:22:52;;;;;;;;;;;;;;;7.32;25.73;91821.44;6180976;23;20028;-76
2021/12/06 09:25:19;;;;;;;0.55;0.55;;;;;;;7.56;25.45;91826.53;6284917;22;19991;-76
2021/12/06 09:27:46;;;;;;;1.17;0.60;;;;;;;7.58;25.16;91827.03;6181021;23;20001;-76
2021/12/06 09:30:16;;;;;;;0.93;0.55;;;;;;;7.83;24.34;91832.91;6180475;23;20020;-76
2021/12/06 09:32:42;;;;;;;0.60;0.60;;;;;;;7.70;25.47;91830.00;6179742;23;20017;-75
2021/12/06 09:35:11;;;;;;;1.95;0.60;;;;;;;7.92;25.02;91841.63;6178383;23;20376;-76
2021/12/06 09:37:39;;;;;;;1.25;0.77;;;;;;;7.46;25.19;91842.31;6179432;23;20013;-75
2021/12/06 09:40:27;;;;;;;1.80;0.65;;;;;;;7.39;26.01;91834.09;6179917;23;20005;-75
2021/12/06 09:42:53;;;;;;;2.50;0.95;;;;;;;8.02;25.89;91848.53;6180639;23;20506;-76
2021/12/06 09:45:23;;;;;;;0.82;0.60;;;;;;;7.18;24.66;91850.00;6180367;23;20001;-75
2021/12/06 09:47:51;;;;;;;1.55;0.88;;;;;;;7.23;25.83;91843.94;6153935;23;20021;-75
2021/12/06 09:50:25;;;;;;;0.63;0.55;;;;;;;6.92;25.85;91846.16;6178574;23;20009;-75
2021/12/06 09:52:53;;;;;;;0.65;0.52;;;;;;;6.64;26.40;91851.13;6179897;23;20005;-75
2021/12/06 09:55:20;;;;;;;1.42;0.85;;;;;;;6.74;25.82;91851.03;6180293;23;20059;-74
2021/12/06 09:57:46;;;;;;;2.30;1.10;;;;;;;7.36;25.44;91848.41;6179898;23;20080;-75
2021/12/06 10:00:14;;;;;;;0.60;0.60;;;;;;;7.45;26.64;91848.56;6127942;23;20375;-75
2021/12/06 10:02:40;;;;;;;0.77;0.60;;;;;;;7.93;25.58;91861.44;6180193;23;20024;-75
2021/12/06 10:05:29;;;;;;;1.25;0.70;;;;;;;8.36;24.43;91853.44;6179766;23;20087;-75
2021/12/06 10:07:57;;;;;;;0.63;0.60;;;;;;;8.48;25.04;91848.53;6180288;23;20020;-75
2021/12/06 10:10:24;;;;;;;2.40;0.73;;;;;;;8.11;23.95;91844.22;6129826;23;20005;-75
2021/12/06 10:12:52;;;;;;;1.67;0.77;;;;;;;8.46;24.50;91850.66;6180522;23;20013;-75
2021/12/06 10:15:27;;;;;;;2.00;1.00;;;;;;;7.48;24.37;91843.59;6178502;22;20001;-75
2021/12/06 10:17:55;;;;;;;3.00;0.82;;;;;;;7.39;25.78;91841.91;6179139;23;20009;-75
2021/12/06 10:20:21;;;;;;;1.80;1.08;;;;;;;8.00;26.23;91832.41;6178532;23;20013;-75
2021/12/06 10:22:50;;;;;;;1.13;0.90;;;;;;;8.11;24.72;91834.56;6180180;23;20062;-75
2021/12/06 10:25:16;;;;;;;1.35;0.80;;;;;;;7.57;24.86;91832.53;6179237;23;20419;-75
2021/12/06 10:27:53;;;;;;;1.85;0.80;;;;;;;7.79;25.52;91837.94;6180532;23;20040;-75
2021/12/06 10:30:22;;;;;;;0.50;0.50;;;;;;;7.23;26.03;91841.34;6178722;23;20052;-75
2021/12/06 10:32:48;;;;;;;1.10;0.80;;;;;;;7.22;25.17;91840.53;6179976;23;20436;-75
2021/12/06 10:35:24;;;;;;;0.63;0.50;;;;;;;7.71;25.21;91834.13;6156941;22;20473;-75
2021/12/06 10:37:55;;;;;;;2.40;0.98;;;;;;;7.21;25.02;91833.81;6180400;23;20084;-75
2021/12/06 10:40:31;;;;;;;0.63;0.63;;;;;;;7.20;25.77;91836.69;6154138;22;20009;-75
2021/12/06 10:42:58;;;;;;;1.15;0.90;;;;;;;7.00;25.12;91840.31;6177738;22;20011;-74
2021/12/06 10:49:23;;;;;;;1.38;0.80;;;;;;;6.66;25.98;91843.81;6179579;23;20052;-79
2021/12/06 10:51:49;;;;;;;2.97;1.10;;;;;;;6.92;26.26;91830.53;6179097;23;20009;-76
2021/12/06 10:54:36;;;;;;;4.20;2.22;;;;;;;6.79;25.52;91840.56;6154765;23;20012;-75
2021/12/06 10:57:04;;;;;;;1.08;0.80;;;;;;;7.02;26.85;91846.00;6178275;23;20070;-75
2021/12/06 10:59:48;;;;;;;1.92;1.00;;;;;;;7.42;25.10;91849.16;6180051;23;20028;-75
2021/12/06 11:02:14;;;;;;;6.22;1.80;;;;;;;7.57;25.29;91838.50;6180226;22;20044;-76
2021/12/06 11:04:59;;;;;;;7.97;3.67;;;;;;;7.12;25.48;91840.69;6152243;22;20047;-76
2021/12/06 11:07:32;;;;;;;1.25;0.80;;;;;;;6.99;25.24;91830.97;6152730;23;20444;-76
2021/12/06 11:10:03;;;;;;;;;;;;;;;7.44;25.67;91840.00;6154787;23;20013;-76
2021/12/06 11:12:34;;;;;;;3.17;0.77;;;;;;;8.05;24.70;91835.69;6178641;23;19912;-76
2021/12/06 11:15:12;;;;;;;1.38;0.88;;;;;;;7.56;24.34;91829.13;6178422;22;20044;-76
2021/12/06 11:17:38;;;;;;;0.77;0.60;;;;;;;7.64;25.03;91843.38;6152780;23;20013;-76
2021/12/06 11:20:04;;;;;;;1.65;0.90;;;;;;;8.17;23.84;91842.28;6177642;23;20523;-76
2021/12/06 11:22:30;;;;;;;1.38;0.80;;;;;;;8.16;24.95;91843.34;6127350;22;20025;-76
2021/12/06 11:24:56;;;;;;;1.15;0.80;;;;;;;7.66;24.64;91836.81;6152014;23;20425;-76
2021/12/06 11:27:27;;;;;;;2.60;0.68;;;;;;;8.44;24.92;91846.78;6176445;23;20395;-76
2021/12/06 11:30:04;;;;;;;0.55;0.55;;;;;;;8.74;23.87;91848.09;6152371;22;20017;-76
2021/12/06 11:32:40;;;;;;;0.75;0.63;;;;;;;7.48;23.26;91853.22;6176386;22;20420;-76
2021/12/06 11:35:09;;;;;;;0.63;0.63;;;;;;;7.50;24.75;91845.91;6176667;23;20013;-76
2021/12/06 11:37:42;;;;;;;0.70;0.70;;;;;;;8.22;23.99;91844.78;6177984;23;20436;-77
2021/12/06 11:40:13;;;;;;;1.23;0.88;;;;;;;7.85;24.49;91842.00;6178523;23;20433;-76
2021/12/06 11:42:50;;;;;;;1.02;0.70;;;;;;;7.46;24.19;91850.91;6152382;22;20624;-75
2021/12/06 11:45:34;;;;;;;0.82;0.80;;;;;;;8.14;23.94;91847.00;6152456;23;20036;-76
2021/12/06 11:48:08;;;;;;;1.02;0.60;;;;;;;8.02;23.47;91843.31;6178682;23;20448;-74
2021/12/06 11:50:38;;;;;;;1.17;0.80;;;;;;;8.01;23.87;91855.56;6178209;23;20019;-76
2021/12/06 11:53:06;;;;;;;2.33;0.90;;;;;;;7.67;24.28;91856.59;6177126;23;20055;-75
2021/12/06 11:55:31;;;;;;;1.58;0.90;;;;;;;7.57;24.40;91851.53;6177720;22;20000;-75
2021/12/06 11:57:57;;;;;;;2.17;0.70;;;;;;;8.07;24.90;91857.03;6127804;23;20067;-75
2021/12/06 12:00:24;;;;;;;0.70;0.60;;;;;;;7.56;23.28;91865.59;6178451;23;20020;-76
2021/12/06 12:02:54;;;;;;;1.30;0.90;;;;;;;7.34;25.05;91853.16;6176897;23;20070;-75
2021/12/06 12:05:38;;;;;;;1.80;0.90;;;;;;;7.24;24.67;91861.88;6178169;23;20021;-75
2021/12/06 12:08:09;;;;;;;2.10;1.10;;;;;;;7.34;24.47;91852.38;6151191;22;20009;-75
2021/12/06 12:10:46;;;;;;;2.67;1.13;;;;;;;7.18;24.51;91857.78;6151546;23;20009;-75
2021/12/06 12:13:27;;;;;;;1.42;1.00;;;;;;;7.30;24.52;91863.34;6176746;22;20408;-75
2021/12/06 12:15:56;;;;;;;1.88;0.95;;;;;;;7.65;25.32;91855.31;6178176;23;20009;-75
2021/12/06 12:18:23;;;;;;;1.35;0.80;;;;;;;7.57;24.08;91872.38;6151539;23;20389;-75
2021/12/06 12:20:50;;;;;;;1.15;0.80;;;;;;;7.03;24.54;91857.97;6175743;22;20009;-75
2021/12/06 12:23:15;;;;;;;2.00;1.10;;;;;;;7.09;24.73;91842.03;6151803;23;20525;-75
2021/12/06 12:25:50;;;;;;;0.70;0.70;;;;;;;7.06;24.66;91862.63;6176061;23;20448;-75
2021/12/06 12:28:25;;;;;;;1.52;0.75;;;;;;;7.07;25.05;91845.97;6178285;23;20089;-75
2021/12/06 12:30:54;;;;;;;0.70;0.70;;;;;;;7.05;24.92;91855.88;6175771;22;20016;-75
2021/12/06 12:33:20;;;;;;;1.05;0.82;;;;;;;7.48;24.22;91845.41;6177594;23;20118;-75
2021/12/06 12:35:53;;;;;;;8.23;0.80;;;;;;;7.47;24.21;91846.47;6178231;23;20013;-75
2021/12/06 12:38:23;;;;;;;;;;;;;;;7.58;24.37;91847.88;6176569;22;20440;-76
2021/12/06 12:40:53;;;;;;;1.00;0.73;;;;;;;8.30;23.31;91855.34;6177673;23;19958;-75
2021/12/06 12:43:42;;;;;;;4.82;1.05;;;;;;;7.72;24.28;91856.53;6177743;23;20001;-76
2021/12/06 12:46:25;;;;;;;0.60;0.60;;;;;;;8.38;24.44;91851.31;6177698;23;20020;-75
2021/12/06 12:48:58;;;;;;;;;;;;;;;8.48;23.78;91853.00;6152040;23;20013;-76
2021/12/06 12:51:26;;;;;;;;;;;;;;;8.12;22.83;91850.97;6177940;23;19943;-75
2021/12/06 12:54:01;;;;;;;;;;;;;;;7.59;23.45;91854.63;6178176;23;19950;-75
2021/12/06 12:56:28;;;;;;;;;;;;;;;7.54;24.92;91852.09;6177663;23;19980;-75
2021/12/06 12:58:54;;;;;;;;;;;;;;;7.38;24.91;91859.34;6282021;22;20255;-75
2021/12/06 13:01:21;;;;;;;;;;;;;;;7.30;24.59;91863.34;6280881;22;19924;-74
2021/12/06 13:03:51;;;;;;;;;;;;;;;7.51;24.45;91857.88;6152448;23;19911;-76
2021/12/06 13:06:21;;;;;;;;;;;;;;;8.03;24.16;91868.31;6178768;23;19912;-76
2021/12/06 13:08:49;;;;;;;;;;;;;;;8.71;23.33;91877.34;6178103;23;19916;-75
2021/12/06 13:11:14;;;;;;;;;;;;;;;9.41;21.91;91870.28;6178044;23;19939;-76
2021/12/06 13:13:45;;;;;;;;;;;;;;;9.10;22.09;91863.06;6177699;23;20250;-76
2021/12/06 13:19:22;;;;;;;;;;;;;;;8.64;23.30;91864.69;6177892;23;19919;-76
2021/12/06 13:21:50;;;;;;;;;;;;;;;8.18;23.29;91860.25;6177998;23;19977;-76
2021/12/06 13:24:16;;;;;;;;;;;;;;;8.04;23.58;91857.59;6177983;23;19904;-76
2021/12/06 13:27:01;;;;;;;;;;;;;;;7.91;24.30;91846.06;6177738;23;20346;-75
2021/12/06 13:29:47;;;;;;;;;;;;;;;8.75;23.93;91863.44;6177684;22;19908;-75
2021/12/06 13:32:30;;;;;;;;;;;;;;;9.27;23.23;91858.00;6177120;23;19975;-77
2021/12/06 13:35:13;;;;;;;;;;;;;;;9.74;21.87;91855.97;6177686;23;19912;-76
2021/12/06 13:37:38;;;;;;;;;;;;;;;9.52;22.00;91866.38;6177969;23;19977;-75
2021/12/06 13:40:17;;;;;;;;;;;;;;;9.76;21.97;91859.06;6177628;23;19904;-76
2021/12/06 13:42:43;;;;;;;;;;;;;;;9.95;20.87;91866.75;6177415;23;19967;-77
2021/12/06 13:45:19;;;;;;;;;;;;;;;9.92;22.49;91866.56;6177872;23;19904;-76
2021/12/06 13:47:47;;;;;;;;;;;;;;;10.05;22.28;91865.72;6177664;23;20331;-76
2021/12/06 13:50:14;;;;;;;;;;;;;;;10.19;21.28;91878.75;6281436;22;19984;-76
2021/12/06 13:52:47;;;;;;;;;;;;;;;9.53;22.06;91875.78;6177462;23;20687;-76
2021/12/06 13:55:21;;;;;;;;;;;;;;;8.71;22.12;91875.53;6176572;23;19908;-75
2021/12/06 13:57:49;;;;;;;;;;;;;;;8.94;22.44;91884.25;6176014;23;19916;-75
2021/12/06 14:00:15;;;;;;;;;;;;;;;8.83;22.66;91875.06;6177482;23;19904;-75
2021/12/06 14:02:41;;;;;;;;;;;;;;;8.74;23.39;91876.81;6177123;23;19912;-75
2021/12/06 14:05:07;;;;;;;;;;;;;;;9.14;23.14;91885.69;6177375;22;19912;-76
2021/12/06 14:07:33;;;;;;;;;;;;;;;9.40;22.36;91879.19;6151646;23;19965;-75
2021/12/06 14:09:59;;;;;;;;;;;;;;;8.50;22.11;91882.94;6177350;23;19912;-75
2021/12/06 14:12:27;;;;;;;;;;;;;;;9.04;23.78;91890.34;6178754;23;20340;-75
2021/12/06 14:15:01;;;;;;;;;;;;;;;8.36;21.64;91892.56;6152634;23;19904;-75
2021/12/06 14:17:27;;;;;;;;;;;;;;;8.66;22.56;91885.28;6178341;23;20285;-75
2021/12/06 14:19:52;;;;;;;;;;;;;;;8.47;22.10;91893.97;6179038;23;19912;-74
2021/12/06 14:22:20;;;;;;;;;;;;;;;8.24;23.47;91890.41;6177497;23;19965;-74
2021/12/06 14:24:46;;;;;;;;;;;;;;;8.73;23.25;91891.66;6178728;23;20284;-74
2021/12/06 14:27:12;;;;;;;;;;;;;;;9.07;21.58;91897.56;6179063;23;19987;-74
2021/12/06 14:29:39;;;;;;;;;;;;;;;9.13;22.14;91888.59;6178323;23;19908;-75
2021/12/06 14:32:07;;;;;;;;;;;;;;;9.35;22.29;91891.28;6297232;22;19915;-75
2021/12/06 14:34:35;;;;;;;;;;;;;;;9.38;22.32;91890.69;6274969;22;19958;-75
2021/12/06 14:37:02;;;;;;;;;;;;;;;9.73;22.89;91891.03;6274261;22;20246;-74
2021/12/06 14:39:28;;;;;;;;;;;;;;;9.80;21.75;91890.63;6274603;22;20274;-75
2021/12/06 14:42:01;;;;;;;;;;;;;;;9.92;20.87;91892.69;6274574;22;19911;-76
2021/12/06 14:44:43;;;;;;;;;;;;;;;9.11;22.13;91890.72;6274884;22;19930;-75
2021/12/06 14:47:26;;;;;;;;;;;;;;;8.39;22.00;91897.19;6274865;22;19929;-76
2021/12/06 14:49:53;;;;;;;;;;;;;;;7.42;23.17;91896.00;6275550;22;20258;-77
2021/12/06 14:52:24;;;;;;;;;;;;;;;6.83;24.58;91900.63;6273080;22;20285;-77
2021/12/06 14:57:43;;;;;;;;;;;;;;;6.25;25.41;91915.19;6274347;22;19958;-76
2021/12/06 15:00:11;;;;;;;;;;;;;;;6.08;25.57;91917.44;6274264;22;19911;-76
2021/12/06 15:02:49;;;;;;;;;;;;;;;5.76;25.67;91920.47;6273990;22;19911;-76
2021/12/06 15:05:16;;;;;;;;;;;;;;;5.44;25.66;91926.88;6298842;22;19918;-76
2021/12/06 15:07:47;;;;;;;;;;;;;;;5.28;26.38;91928.00;6274070;22;20250;-75
2021/12/06 15:10:14;;;;;;;;;;;;;;;5.23;27.49;91939.19;6273999;22;19907;-75
2021/12/06 15:12:39;;;;;;;;;;;;;;;5.10;28.60;91940.53;6274630;22;19930;-75
2021/12/06 15:15:05;;;;;;;;;;;;;;;4.96;28.34;91932.53;6274125;22;20290;-75
2021/12/06 15:17:30;;;;;;;;;;;;;;;4.74;30.62;91932.84;6274080;22;19915;-76
2021/12/06 15:19:59;;;;;;;;;;;;;;;4.58;28.15;91931.34;6274672;22;19977;-75
2021/12/06 15:22:25;;;;;;;;;;;;;;;4.48;27.49;91918.38;6273890;22;19942;-76
2021/12/06 15:24:52;;;;;;;;;;;;;;;4.34;27.99;91921.50;6298031;22;19915;-75
2021/12/06 15:27:17;;;;;;;;;;;;;;;4.22;28.28;91933.97;6298645;22;19903;-75
2021/12/06 15:29:47;;;;;;;;;;;;;;;4.15;28.13;91938.66;6273946;22;19907;-75
2021/12/06 15:32:13;;;;;;;;;;;;;;;4.06;29.33;91945.38;6209313;22;19916;-76
2021/12/06 15:34:40;;;;;;;;;;;;;;;3.97;28.86;91935.53;6178339;23;20331;-75
2021/12/06 15:37:06;;;;;;;;;;;;;;;3.88;29.51;91939.66;6178827;23;19961;-76
2021/12/06 15:39:32;;;;;;;;;;;;;;;3.76;29.40;91933.97;6178458;23;19912;-76
2021/12/06 15:42:06;;;;;;;;;;;;;;;3.67;30.07;91943.25;6175805;23;19912;-76
2021/12/06 15:44:33;;;;;;;;;;;;;;;3.60;30.21;91940.91;6282471;22;19912;-76
2021/12/06 15:47:04;;;;;;;;;;;;;;;3.50;30.16;91933.91;6178941;23;19926;-76
2021/12/06 15:49:31;;;;;;;;;;;;;;;3.38;30.60;91941.16;6178380;23;19919;-75
2021/12/06 15:52:01;;;;;;;;;;;;;;;3.25;30.65;91949.38;6177934;23;19957;-75
2021/12/06 15:54:28;;;;;;;;;;;;;;;3.18;31.02;91946.25;6178198;23;19931;-75
2021/12/06 15:57:05;;;;;;;;;;;;;;;3.11;30.21;91949.84;6152244;23;19904;-75
2021/12/06 15:59:33;;;;;;;;;;;;;;;3.06;30.47;91951.63;6177788;23;19939;-75
2021/12/06 16:02:07;;;;;;;;;;;;;;;3.00;30.60;91957.81;6179021;23;19999;-75
2021/12/06 16:04:34;;;;;;;;;;;;;;;2.90;32.03;91955.97;6176082;23;19936;-75
2021/12/06 16:06:59;;;;;;;;;;;;;;;2.82;31.76;91951.28;6186756;23;20034;-74
2021/12/06 16:09:25;;;;;;;;;;;;;;;2.70;32.19;91960.00;6187845;23;19916;-74
2021/12/06 16:11:58;;;;;;;;;;;;;;;2.62;32.11;91955.31;6189698;23;19912;-74
2021/12/06 16:14:25;;;;;;;;;;;;;;;2.58;32.01;91959.41;6189125;23;20283;-74
2021/12/06 16:16:51;;;;;;;;;;;;;;;2.48;32.40;91952.38;6190797;23;19952;-76
2021/12/06 16:19:18;;;;;;;;;;;;;;;2.45;32.61;91963.19;6188806;23;19916;-74
2021/12/06 16:21:46;;;;;;;;;;;;;;;2.36;32.32;91956.94;6188769;23;19939;-76
2021/12/06 16:24:12;;;;;;;;;;;;;;;2.32;32.44;91962.84;6189142;23;20387;-76
2021/12/06 16:26:40;;;;;;;;;;;;;;;2.25;32.45;91969.03;6186458;23;19904;-76
2021/12/06 16:29:08;;;;;;;;;;;;;;;2.19;32.48;91969.25;6187078;23;20379;-76
2021/12/06 16:31:36;;;;;;;;;;;;;;;2.14;32.42;91975.16;6186051;23;19912;-76
2021/12/06 16:34:03;;;;;;;;;;;;;;;2.06;32.62;91978.16;6190043;23;19908;-81
2021/12/06 16:36:35;;;;;;;;;;;;;;;2.04;32.18;91978.41;6188935;23;19945;-76
2021/12/06 16:39:24;;;;;;;;;;;;;;;2.02;32.22;91984.84;6187426;23;20228;-76
2021/12/06 16:41:51;;;;;;;;;;;;;;;2.00;32.88;91989.47;6188886;23;19913;-75
2021/12/06 16:44:21;;;;;;;;;;;;;;;1.96;32.90;91990.97;6180934;23;19993;-76
2021/12/06 16:46:52;;;;;;;;;;;;;;;1.96;32.63;91993.56;6181026;23;19908;-77
2021/12/06 16:49:28;;;;;;;;;;;;;;;1.87;32.90;91994.03;6180537;23;19915;-75
2021/12/06 16:51:54;;;;;;;;;;;;;;;1.83;33.20;91998.09;6179235;23;20326;-77
2021/12/06 16:54:26;;;;;;;;;;;;;;;1.79;33.95;92002.19;6178145;23;19912;-76
2021/12/06 16:57:02;;;;;;;;;;;;;;;1.70;34.60;92010.63;6179715;23;19908;-76
2021/12/06 16:59:27;;;;;;;;;;;;;;;1.60;33.41;92016.44;6178339;22;19908;-76